sensor_id;sensor_type;location;lat;lon;timestamp;temperature;humidity
59128;DHT22;44912;52.754;5.994;2023-05-19T00:01:27;8.30;99.90
59128;DHT22;44912;52.754;5.994;2023-05-19T00:03:58;8.20;99.90
59128;DHT22;44912;52.754;5.994;2023-05-19T00:06:28;8.20;99.90
59128;DHT22;44912;52.754;5.994;2023-05-19T00:09:04;8.30;99.90
59128;DHT22;44912;52.754;5.994;2023-05-19T00:11:31;8.30;99.90
59128;DHT22;44912;52.754;5.994;2023-05-19T00:13:58;8.30;99.90
59128;DHT22;44912;52.754;5.994;2023-05-19T00:16:26;8.30;99.90
59128;DHT22;44912;52.754;5.994;2023-05-19T00:18:52;8.20;99.90
59128;DHT22;44912;52.754;5.994;2023-05-19T00:21:19;8.20;99.90
59128;DHT22;44912;52.754;5.994;2023-05-19T00:23:45;8.10;99.90
59128;DHT22;44912;52.754;5.994;2023-05-19T00:26:11;8.10;99.90
59128;DHT22;44912;52.754;5.994;2023-05-19T00:28:36;8.00;99.90
59128;DHT22;44912;52.754;5.994;2023-05-19T00:31:03;8.10;99.90
59128;DHT22;44912;52.754;5.994;2023-05-19T00:33:29;8.00;99.90
59128;DHT22;44912;52.754;5.994;2023-05-19T00:35:55;8.00;99.90
59128;DHT22;44912;52.754;5.994;2023-05-19T00:38:20;8.00;99.90
59128;DHT22;44912;52.754;5.994;2023-05-19T00:40:46;8.00;99.90
59128;DHT22;44912;52.754;5.994;2023-05-19T00:43:11;8.00;99.90
59128;DHT22;44912;52.754;5.994;2023-05-19T00:45:37;7.90;99.90
59128;DHT22;44912;52.754;5.994;2023-05-19T00:48:03;7.90;99.90
59128;DHT22;44912;52.754;5.994;2023-05-19T00:50:28;7.90;99.90
59128;DHT22;44912;52.754;5.994;2023-05-19T00:52:55;7.90;99.90
59128;DHT22;44912;52.754;5.994;2023-05-19T00:55:26;7.90;99.90
59128;DHT22;44912;52.754;5.994;2023-05-19T00:57:54;7.90;99.90
59128;DHT22;44912;52.754;5.994;2023-05-19T01:00:20;7.90;99.90
59128;DHT22;44912;52.754;5.994;2023-05-19T01:02:45;7.90;99.90
59128;DHT22;44912;52.754;5.994;2023-05-19T01:05:11;7.90;99.90
59128;DHT22;44912;52.754;5.994;2023-05-19T01:07:38;7.90;99.90
59128;DHT22;44912;52.754;5.994;2023-05-19T01:10:03;7.90;99.90
59128;DHT22;44912;52.754;5.994;2023-05-19T01:12:29;7.90;99.90
59128;DHT22;44912;52.754;5.994;2023-05-19T01:14:56;7.90;99.90
59128;DHT22;44912;52.754;5.994;2023-05-19T01:17:47;7.90;99.90
59128;DHT22;44912;52.754;5.994;2023-05-19T01:20:33;8.00;99.90
59128;DHT22;44912;52.754;5.994;2023-05-19T01:23:23;8.00;99.90
59128;DHT22;44912;52.754;5.994;2023-05-19T01:26:16;8.10;99.90
59128;DHT22;44912;52.754;5.994;2023-05-19T01:29:10;8.00;99.90
59128;DHT22;44912;52.754;5.994;2023-05-19T01:31:40;8.00;99.90
59128;DHT22;44912;52.754;5.994;2023-05-19T01:34:08;8.00;99.90
59128;DHT22;44912;52.754;5.994;2023-05-19T01:36:36;8.00;99.90
59128;DHT22;44912;52.754;5.994;2023-05-19T01:39:02;7.90;99.90
59128;DHT22;44912;52.754;5.994;2023-05-19T01:41:29;7.90;99.90
59128;DHT22;44912;52.754;5.994;2023-05-19T01:43:56;7.80;99.90
59128;DHT22;44912;52.754;5.994;2023-05-19T01:46:23;7.80;99.90
59128;DHT22;44912;52.754;5.994;2023-05-19T01:48:49;7.80;99.90
59128;DHT22;44912;52.754;5.994;2023-05-19T01:51:14;7.80;99.90
59128;DHT22;44912;52.754;5.994;2023-05-19T01:53:40;7.70;99.90
59128;DHT22;44912;52.754;5.994;2023-05-19T01:56:06;7.70;99.90
59128;DHT22;44912;52.754;5.994;2023-05-19T01:58:46;7.70;99.90
59128;DHT22;44912;52.754;5.994;2023-05-19T02:04:00;7.70;99.90
59128;DHT22;44912;52.754;5.994;2023-05-19T02:06:38;7.60;99.90
59128;DHT22;44912;52.754;5.994;2023-05-19T02:12:23;7.60;99.90
59128;DHT22;44912;52.754;5.994;2023-05-19T02:14:58;7.70;99.90
59128;DHT22;44912;52.754;5.994;2023-05-19T02:17:26;7.70;99.90
59128;DHT22;44912;52.754;5.994;2023-05-19T02:19:53;7.70;99.90
59128;DHT22;44912;52.754;5.994;2023-05-19T02:22:19;7.70;99.90
59128;DHT22;44912;52.754;5.994;2023-05-19T02:24:44;7.70;99.90
59128;DHT22;44912;52.754;5.994;2023-05-19T02:27:12;7.60;99.90
59128;DHT22;44912;52.754;5.994;2023-05-19T02:29:37;7.60;99.90
59128;DHT22;44912;52.754;5.994;2023-05-19T02:32:03;7.60;99.90
59128;DHT22;44912;52.754;5.994;2023-05-19T02:34:29;7.60;99.90
59128;DHT22;44912;52.754;5.994;2023-05-19T02:36:54;7.60;99.90
59128;DHT22;44912;52.754;5.994;2023-05-19T02:39:20;7.60;99.90
59128;DHT22;44912;52.754;5.994;2023-05-19T02:41:46;7.60;99.90
59128;DHT22;44912;52.754;5.994;2023-05-19T02:44:11;7.60;99.90
59128;DHT22;44912;52.754;5.994;2023-05-19T02:46:37;7.50;99.90
59128;DHT22;44912;52.754;5.994;2023-05-19T02:49:05;7.50;99.90
59128;DHT22;44912;52.754;5.994;2023-05-19T02:51:30;7.50;99.90
59128;DHT22;44912;52.754;5.994;2023-05-19T02:53:56;7.50;99.90
59128;DHT22;44912;52.754;5.994;2023-05-19T02:56:22;7.50;99.90
59128;DHT22;44912;52.754;5.994;2023-05-19T02:58:47;7.50;99.90
59128;DHT22;44912;52.754;5.994;2023-05-19T03:01:13;7.50;99.90
59128;DHT22;44912;52.754;5.994;2023-05-19T03:03:38;7.40;99.90
59128;DHT22;44912;52.754;5.994;2023-05-19T03:06:04;7.40;99.90
59128;DHT22;44912;52.754;5.994;2023-05-19T03:08:33;7.40;99.90
59128;DHT22;44912;52.754;5.994;2023-05-19T03:10:59;7.30;99.90
59128;DHT22;44912;52.754;5.994;2023-05-19T03:13:25;7.40;99.90
59128;DHT22;44912;52.754;5.994;2023-05-19T03:15:50;7.40;99.90
59128;DHT22;44912;52.754;5.994;2023-05-19T03:18:16;7.40;99.90
59128;DHT22;44912;52.754;5.994;2023-05-19T03:20:44;7.40;99.90
59128;DHT22;44912;52.754;5.994;2023-05-19T03:23:10;7.40;99.90
59128;DHT22;44912;52.754;5.994;2023-05-19T03:25:35;7.40;99.90
59128;DHT22;44912;52.754;5.994;2023-05-19T03:28:01;7.40;99.90
59128;DHT22;44912;52.754;5.994;2023-05-19T03:30:26;7.40;99.90
59128;DHT22;44912;52.754;5.994;2023-05-19T03:32:52;7.40;99.90
59128;DHT22;44912;52.754;5.994;2023-05-19T03:35:18;7.40;99.90
59128;DHT22;44912;52.754;5.994;2023-05-19T03:37:43;7.40;99.90
59128;DHT22;44912;52.754;5.994;2023-05-19T03:40:09;7.40;99.90
59128;DHT22;44912;52.754;5.994;2023-05-19T03:42:35;7.30;99.90
59128;DHT22;44912;52.754;5.994;2023-05-19T03:45:01;7.30;99.90
59128;DHT22;44912;52.754;5.994;2023-05-19T03:47:26;7.30;99.90
59128;DHT22;44912;52.754;5.994;2023-05-19T03:49:52;7.40;99.90
59128;DHT22;44912;52.754;5.994;2023-05-19T03:52:17;7.30;99.90
59128;DHT22;44912;52.754;5.994;2023-05-19T03:54:43;7.30;99.90
59128;DHT22;44912;52.754;5.994;2023-05-19T03:57:09;7.30;99.90
59128;DHT22;44912;52.754;5.994;2023-05-19T03:59:37;7.40;99.90
59128;DHT22;44912;52.754;5.994;2023-05-19T04:02:05;7.40;99.90
59128;DHT22;44912;52.754;5.994;2023-05-19T04:04:31;7.40;99.90
59128;DHT22;44912;52.754;5.994;2023-05-19T04:06:56;7.40;99.90
59128;DHT22;44912;52.754;5.994;2023-05-19T04:09:22;7.40;99.90
59128;DHT22;44912;52.754;5.994;2023-05-19T04:11:50;7.50;99.90
59128;DHT22;44912;52.754;5.994;2023-05-19T04:14:16;7.40;99.90
59128;DHT22;44912;52.754;5.994;2023-05-19T04:16:41;7.40;99.90
59128;DHT22;44912;52.754;5.994;2023-05-19T04:19:07;7.40;99.90
59128;DHT22;44912;52.754;5.994;2023-05-19T04:21:33;7.50;99.90
59128;DHT22;44912;52.754;5.994;2023-05-19T04:23:58;7.50;99.90
59128;DHT22;44912;52.754;5.994;2023-05-19T04:26:25;7.50;99.90
59128;DHT22;44912;52.754;5.994;2023-05-19T04:28:51;7.60;99.90
59128;DHT22;44912;52.754;5.994;2023-05-19T04:31:18;7.60;99.90
59128;DHT22;44912;52.754;5.994;2023-05-19T04:33:46;7.70;99.90
59128;DHT22;44912;52.754;5.994;2023-05-19T04:36:12;7.70;99.90
59128;DHT22;44912;52.754;5.994;2023-05-19T04:38:39;7.80;99.90
59128;DHT22;44912;52.754;5.994;2023-05-19T04:41:08;7.80;99.90
59128;DHT22;44912;52.754;5.994;2023-05-19T04:43:37;7.80;99.90
59128;DHT22;44912;52.754;5.994;2023-05-19T04:46:09;7.80;99.90
59128;DHT22;44912;52.754;5.994;2023-05-19T04:48:35;7.90;99.90
59128;DHT22;44912;52.754;5.994;2023-05-19T04:51:01;8.00;99.90
59128;DHT22;44912;52.754;5.994;2023-05-19T04:53:27;8.00;99.90
59128;DHT22;44912;52.754;5.994;2023-05-19T04:55:53;8.10;99.90
59128;DHT22;44912;52.754;5.994;2023-05-19T04:58:19;8.20;99.90
59128;DHT22;44912;52.754;5.994;2023-05-19T05:00:45;8.30;99.90
59128;DHT22;44912;52.754;5.994;2023-05-19T05:03:10;8.40;99.90
59128;DHT22;44912;52.754;5.994;2023-05-19T05:05:38;8.50;99.90
59128;DHT22;44912;52.754;5.994;2023-05-19T05:08:04;8.60;99.90
59128;DHT22;44912;52.754;5.994;2023-05-19T05:10:30;8.70;99.90
59128;DHT22;44912;52.754;5.994;2023-05-19T05:12:56;8.80;99.90
59128;DHT22;44912;52.754;5.994;2023-05-19T05:15:22;8.90;99.90
59128;DHT22;44912;52.754;5.994;2023-05-19T05:17:49;9.00;99.90
59128;DHT22;44912;52.754;5.994;2023-05-19T05:20:15;9.00;99.90
59128;DHT22;44912;52.754;5.994;2023-05-19T05:22:41;9.10;99.90
59128;DHT22;44912;52.754;5.994;2023-05-19T05:25:07;9.20;99.90
59128;DHT22;44912;52.754;5.994;2023-05-19T05:27:33;9.30;99.90
59128;DHT22;44912;52.754;5.994;2023-05-19T05:29:58;9.30;99.90
59128;DHT22;44912;52.754;5.994;2023-05-19T05:32:24;9.40;99.90
59128;DHT22;44912;52.754;5.994;2023-05-19T05:34:50;9.50;99.90
59128;DHT22;44912;52.754;5.994;2023-05-19T05:37:15;9.50;99.90
59128;DHT22;44912;52.754;5.994;2023-05-19T05:39:41;9.60;99.90
59128;DHT22;44912;52.754;5.994;2023-05-19T05:42:07;9.70;99.90
59128;DHT22;44912;52.754;5.994;2023-05-19T05:44:36;9.80;99.90
59128;DHT22;44912;52.754;5.994;2023-05-19T05:47:02;9.80;99.90
59128;DHT22;44912;52.754;5.994;2023-05-19T05:49:28;9.90;99.90
59128;DHT22;44912;52.754;5.994;2023-05-19T05:51:54;10.00;99.90
59128;DHT22;44912;52.754;5.994;2023-05-19T05:54:21;10.00;99.90
59128;DHT22;44912;52.754;5.994;2023-05-19T05:56:47;10.10;99.90
59128;DHT22;44912;52.754;5.994;2023-05-19T05:59:13;10.20;99.90
59128;DHT22;44912;52.754;5.994;2023-05-19T06:01:39;10.40;99.90
59128;DHT22;44912;52.754;5.994;2023-05-19T06:04:06;10.40;99.90
59128;DHT22;44912;52.754;5.994;2023-05-19T06:06:32;10.50;99.90
59128;DHT22;44912;52.754;5.994;2023-05-19T06:08:57;10.60;99.90
59128;DHT22;44912;52.754;5.994;2023-05-19T06:11:23;10.70;99.90
59128;DHT22;44912;52.754;5.994;2023-05-19T06:13:49;10.80;99.90
59128;DHT22;44912;52.754;5.994;2023-05-19T06:16:15;10.90;99.90
59128;DHT22;44912;52.754;5.994;2023-05-19T06:18:40;11.00;99.90
59128;DHT22;44912;52.754;5.994;2023-05-19T06:21:06;11.10;99.90
59128;DHT22;44912;52.754;5.994;2023-05-19T06:23:34;11.30;99.90
59128;DHT22;44912;52.754;5.994;2023-05-19T06:26:00;11.40;99.90
59128;DHT22;44912;52.754;5.994;2023-05-19T06:28:26;11.50;99.90
59128;DHT22;44912;52.754;5.994;2023-05-19T06:30:51;11.50;99.90
59128;DHT22;44912;52.754;5.994;2023-05-19T06:33:17;11.60;99.90
59128;DHT22;44912;52.754;5.994;2023-05-19T06:35:42;11.70;99.90
59128;DHT22;44912;52.754;5.994;2023-05-19T06:38:08;11.80;99.90
59128;DHT22;44912;52.754;5.994;2023-05-19T06:40:33;11.90;99.90
59128;DHT22;44912;52.754;5.994;2023-05-19T06:43:00;11.90;99.90
59128;DHT22;44912;52.754;5.994;2023-05-19T06:45:25;12.00;99.90
59128;DHT22;44912;52.754;5.994;2023-05-19T06:47:51;12.20;99.90
59128;DHT22;44912;52.754;5.994;2023-05-19T06:50:18;12.30;99.90
59128;DHT22;44912;52.754;5.994;2023-05-19T06:52:43;12.50;99.90
59128;DHT22;44912;52.754;5.994;2023-05-19T06:55:11;12.60;99.90
59128;DHT22;44912;52.754;5.994;2023-05-19T06:57:37;12.80;99.90
59128;DHT22;44912;52.754;5.994;2023-05-19T07:00:03;12.90;99.90
59128;DHT22;44912;52.754;5.994;2023-05-19T07:02:29;13.00;99.90
59128;DHT22;44912;52.754;5.994;2023-05-19T07:04:54;13.00;99.90
59128;DHT22;44912;52.754;5.994;2023-05-19T07:07:21;13.10;99.90
59128;DHT22;44912;52.754;5.994;2023-05-19T07:09:47;13.20;99.90
59128;DHT22;44912;52.754;5.994;2023-05-19T07:12:13;13.30;99.90
59128;DHT22;44912;52.754;5.994;2023-05-19T07:14:38;13.50;99.90
59128;DHT22;44912;52.754;5.994;2023-05-19T07:17:04;13.60;99.90
59128;DHT22;44912;52.754;5.994;2023-05-19T07:19:29;13.70;99.90
59128;DHT22;44912;52.754;5.994;2023-05-19T07:21:55;13.80;99.90
59128;DHT22;44912;52.754;5.994;2023-05-19T07:24:21;13.90;99.90
59128;DHT22;44912;52.754;5.994;2023-05-19T07:26:47;14.00;99.90
59128;DHT22;44912;52.754;5.994;2023-05-19T07:29:12;14.10;99.90
59128;DHT22;44912;52.754;5.994;2023-05-19T07:31:38;14.30;99.90
59128;DHT22;44912;52.754;5.994;2023-05-19T07:34:03;14.30;99.90
59128;DHT22;44912;52.754;5.994;2023-05-19T07:36:29;14.40;99.90
59128;DHT22;44912;52.754;5.994;2023-05-19T07:38:55;14.60;99.90
59128;DHT22;44912;52.754;5.994;2023-05-19T07:41:21;14.70;99.90
59128;DHT22;44912;52.754;5.994;2023-05-19T07:43:47;14.70;99.90
59128;DHT22;44912;52.754;5.994;2023-05-19T07:46:13;14.70;99.90
59128;DHT22;44912;52.754;5.994;2023-05-19T07:48:39;14.80;99.90
59128;DHT22;44912;52.754;5.994;2023-05-19T07:51:04;14.90;99.90
59128;DHT22;44912;52.754;5.994;2023-05-19T07:53:30;15.00;99.90
59128;DHT22;44912;52.754;5.994;2023-05-19T07:55:56;15.20;99.90
59128;DHT22;44912;52.754;5.994;2023-05-19T07:58:21;15.30;99.90
59128;DHT22;44912;52.754;5.994;2023-05-19T08:00:47;15.40;99.90
59128;DHT22;44912;52.754;5.994;2023-05-19T08:03:12;15.50;99.90
59128;DHT22;44912;52.754;5.994;2023-05-19T08:05:41;15.50;99.90
59128;DHT22;44912;52.754;5.994;2023-05-19T08:08:07;15.50;99.90
59128;DHT22;44912;52.754;5.994;2023-05-19T08:10:32;15.40;99.90
59128;DHT22;44912;52.754;5.994;2023-05-19T08:12:58;15.50;99.90
59128;DHT22;44912;52.754;5.994;2023-05-19T08:15:24;15.60;99.90
59128;DHT22;44912;52.754;5.994;2023-05-19T08:17:49;15.80;99.90
59128;DHT22;44912;52.754;5.994;2023-05-19T08:20:15;16.00;99.90
59128;DHT22;44912;52.754;5.994;2023-05-19T08:22:41;16.10;99.90
59128;DHT22;44912;52.754;5.994;2023-05-19T08:25:07;16.20;99.90
59128;DHT22;44912;52.754;5.994;2023-05-19T08:27:36;16.40;99.90
59128;DHT22;44912;52.754;5.994;2023-05-19T08:30:05;16.50;99.90
59128;DHT22;44912;52.754;5.994;2023-05-19T08:32:37;16.70;99.90
59128;DHT22;44912;52.754;5.994;2023-05-19T08:35:02;16.80;99.90
59128;DHT22;44912;52.754;5.994;2023-05-19T08:37:28;16.90;99.90
59128;DHT22;44912;52.754;5.994;2023-05-19T08:39:54;17.00;99.90
59128;DHT22;44912;52.754;5.994;2023-05-19T08:42:20;17.20;99.90
59128;DHT22;44912;52.754;5.994;2023-05-19T08:44:45;17.30;99.90
59128;DHT22;44912;52.754;5.994;2023-05-19T08:47:11;17.50;99.90
59128;DHT22;44912;52.754;5.994;2023-05-19T08:49:45;17.60;99.90
59128;DHT22;44912;52.754;5.994;2023-05-19T08:57:59;18.00;99.90
59128;DHT22;44912;52.754;5.994;2023-05-19T09:00:26;17.90;99.90
59128;DHT22;44912;52.754;5.994;2023-05-19T09:02:52;17.90;99.90
59128;DHT22;44912;52.754;5.994;2023-05-19T09:05:19;17.90;99.90
59128;DHT22;44912;52.754;5.994;2023-05-19T09:07:45;17.80;99.90
59128;DHT22;44912;52.754;5.994;2023-05-19T09:10:11;17.70;99.90
59128;DHT22;44912;52.754;5.994;2023-05-19T09:12:43;17.70;99.90
59128;DHT22;44912;52.754;5.994;2023-05-19T09:15:10;17.80;99.90
59128;DHT22;44912;52.754;5.994;2023-05-19T09:17:36;17.70;99.90
59128;DHT22;44912;52.754;5.994;2023-05-19T09:20:03;17.70;99.90
59128;DHT22;44912;52.754;5.994;2023-05-19T09:22:31;17.60;99.90
59128;DHT22;44912;52.754;5.994;2023-05-19T09:24:59;17.60;99.90
59128;DHT22;44912;52.754;5.994;2023-05-19T09:27:25;17.60;99.90
59128;DHT22;44912;52.754;5.994;2023-05-19T09:29:51;17.70;99.90
59128;DHT22;44912;52.754;5.994;2023-05-19T09:32:23;17.70;99.90
59128;DHT22;44912;52.754;5.994;2023-05-19T09:34:52;17.80;99.90
59128;DHT22;44912;52.754;5.994;2023-05-19T09:37:22;17.90;99.90
59128;DHT22;44912;52.754;5.994;2023-05-19T09:39:47;18.20;99.90
59128;DHT22;44912;52.754;5.994;2023-05-19T09:42:23;18.40;99.90
59128;DHT22;44912;52.754;5.994;2023-05-19T09:44:50;18.70;99.90
59128;DHT22;44912;52.754;5.994;2023-05-19T09:47:23;19.00;99.90
59128;DHT22;44912;52.754;5.994;2023-05-19T09:49:48;19.20;99.90
59128;DHT22;44912;52.754;5.994;2023-05-19T09:52:19;19.20;99.90
59128;DHT22;44912;52.754;5.994;2023-05-19T09:54:46;19.20;99.90
59128;DHT22;44912;52.754;5.994;2023-05-19T09:57:12;19.30;99.90
59128;DHT22;44912;52.754;5.994;2023-05-19T09:59:38;19.40;99.90
59128;DHT22;44912;52.754;5.994;2023-05-19T10:02:06;19.60;99.90
59128;DHT22;44912;52.754;5.994;2023-05-19T10:04:34;19.80;99.90
59128;DHT22;44912;52.754;5.994;2023-05-19T10:07:01;19.90;99.90
59128;DHT22;44912;52.754;5.994;2023-05-19T10:09:29;19.80;99.90
59128;DHT22;44912;52.754;5.994;2023-05-19T10:11:57;19.80;99.90
59128;DHT22;44912;52.754;5.994;2023-05-19T10:14:24;19.90;99.90
59128;DHT22;44912;52.754;5.994;2023-05-19T10:16:51;19.80;99.90
59128;DHT22;44912;52.754;5.994;2023-05-19T10:19:22;19.60;99.90
59128;DHT22;44912;52.754;5.994;2023-05-19T10:21:49;19.50;99.90
59128;DHT22;44912;52.754;5.994;2023-05-19T10:24:22;19.40;99.90
59128;DHT22;44912;52.754;5.994;2023-05-19T10:27:00;19.50;99.90
59128;DHT22;44912;52.754;5.994;2023-05-19T10:29:39;19.60;99.90
59128;DHT22;44912;52.754;5.994;2023-05-19T10:32:10;19.70;99.90
59128;DHT22;44912;52.754;5.994;2023-05-19T10:40:27;20.60;99.90
59128;DHT22;44912;52.754;5.994;2023-05-19T10:43:20;20.80;99.90
59128;DHT22;44912;52.754;5.994;2023-05-19T10:45:53;20.90;99.90
59128;DHT22;44912;52.754;5.994;2023-05-19T10:48:22;21.00;99.90
59128;DHT22;44912;52.754;5.994;2023-05-19T10:50:48;21.10;99.90
59128;DHT22;44912;52.754;5.994;2023-05-19T10:53:17;21.00;99.90
59128;DHT22;44912;52.754;5.994;2023-05-19T10:55:54;21.10;99.90
59128;DHT22;44912;52.754;5.994;2023-05-19T11:01:15;21.50;99.90
59128;DHT22;44912;52.754;5.994;2023-05-19T11:03:48;21.50;99.90
59128;DHT22;44912;52.754;5.994;2023-05-19T11:06:34;21.60;99.90
59128;DHT22;44912;52.754;5.994;2023-05-19T11:09:14;21.70;99.90
59128;DHT22;44912;52.754;5.994;2023-05-19T11:11:45;21.90;99.90
59128;DHT22;44912;52.754;5.994;2023-05-19T11:14:11;21.90;99.90
59128;DHT22;44912;52.754;5.994;2023-05-19T11:16:41;21.90;99.90
59128;DHT22;44912;52.754;5.994;2023-05-19T11:19:08;22.00;99.90
59128;DHT22;44912;52.754;5.994;2023-05-19T11:21:42;22.20;99.90
59128;DHT22;44912;52.754;5.994;2023-05-19T11:24:46;22.20;99.90
59128;DHT22;44912;52.754;5.994;2023-05-19T11:27:32;22.20;99.90
59128;DHT22;44912;52.754;5.994;2023-05-19T11:30:08;22.10;99.90
59128;DHT22;44912;52.754;5.994;2023-05-19T11:32:39;22.20;99.90
59128;DHT22;44912;52.754;5.994;2023-05-19T11:35:07;22.10;99.90
59128;DHT22;44912;52.754;5.994;2023-05-19T11:37:34;22.00;99.90
59128;DHT22;44912;52.754;5.994;2023-05-19T11:40:04;22.00;98.00
59128;DHT22;44912;52.754;5.994;2023-05-19T11:42:34;22.00;98.30
59128;DHT22;44912;52.754;5.994;2023-05-19T11:45:00;21.80;98.80
59128;DHT22;44912;52.754;5.994;2023-05-19T11:47:26;21.70;98.60
59128;DHT22;44912;52.754;5.994;2023-05-19T11:49:53;21.50;98.70
59128;DHT22;44912;52.754;5.994;2023-05-19T11:52:23;21.30;98.00
59128;DHT22;44912;52.754;5.994;2023-05-19T11:54:49;21.20;98.30
59128;DHT22;44912;52.754;5.994;2023-05-19T11:57:15;21.30;99.20
59128;DHT22;44912;52.754;5.994;2023-05-19T11:59:41;21.50;98.90
59128;DHT22;44912;52.754;5.994;2023-05-19T12:02:18;21.70;98.50
59128;DHT22;44912;52.754;5.994;2023-05-19T12:04:44;21.90;96.70
59128;DHT22;44912;52.754;5.994;2023-05-19T12:07:11;21.90;95.30
59128;DHT22;44912;52.754;5.994;2023-05-19T12:09:38;22.00;96.60
59128;DHT22;44912;52.754;5.994;2023-05-19T12:12:04;22.00;97.60
59128;DHT22;44912;52.754;5.994;2023-05-19T12:14:30;22.10;96.20
59128;DHT22;44912;52.754;5.994;2023-05-19T12:16:56;22.20;96.00
59128;DHT22;44912;52.754;5.994;2023-05-19T12:19:25;22.30;95.50
59128;DHT22;44912;52.754;5.994;2023-05-19T12:21:51;22.50;96.10
59128;DHT22;44912;52.754;5.994;2023-05-19T12:24:18;22.60;96.80
59128;DHT22;44912;52.754;5.994;2023-05-19T12:26:44;22.80;96.20
59128;DHT22;44912;52.754;5.994;2023-05-19T12:29:12;22.80;95.20
59128;DHT22;44912;52.754;5.994;2023-05-19T12:31:37;22.80;94.00
59128;DHT22;44912;52.754;5.994;2023-05-19T12:34:03;22.60;93.60
59128;DHT22;44912;52.754;5.994;2023-05-19T12:36:31;22.60;94.60
59128;DHT22;44912;52.754;5.994;2023-05-19T12:38:56;22.50;94.00
59128;DHT22;44912;52.754;5.994;2023-05-19T12:41:25;22.50;95.10
59128;DHT22;44912;52.754;5.994;2023-05-19T12:43:53;22.60;94.40
59128;DHT22;44912;52.754;5.994;2023-05-19T12:46:19;22.70;94.90
59128;DHT22;44912;52.754;5.994;2023-05-19T12:48:45;22.80;95.10
59128;DHT22;44912;52.754;5.994;2023-05-19T12:51:18;22.80;92.40
59128;DHT22;44912;52.754;5.994;2023-05-19T12:53:44;22.80;93.60
59128;DHT22;44912;52.754;5.994;2023-05-19T12:56:11;23.10;93.60
59128;DHT22;44912;52.754;5.994;2023-05-19T12:58:38;23.30;92.40
59128;DHT22;44912;52.754;5.994;2023-05-19T13:01:05;23.20;91.40
59128;DHT22;44912;52.754;5.994;2023-05-19T13:03:31;23.30;92.60
59128;DHT22;44912;52.754;5.994;2023-05-19T13:05:57;23.40;93.40
59128;DHT22;44912;52.754;5.994;2023-05-19T13:08:24;23.50;93.20
59128;DHT22;44912;52.754;5.994;2023-05-19T13:10:49;23.50;93.10
59128;DHT22;44912;52.754;5.994;2023-05-19T13:13:15;23.30;92.70
59128;DHT22;44912;52.754;5.994;2023-05-19T13:15:43;23.00;91.70
59128;DHT22;44912;52.754;5.994;2023-05-19T13:18:10;22.80;91.80
59128;DHT22;44912;52.754;5.994;2023-05-19T13:20:37;22.70;93.20
59128;DHT22;44912;52.754;5.994;2023-05-19T13:23:03;22.70;93.50
59128;DHT22;44912;52.754;5.994;2023-05-19T13:25:32;22.70;92.50
59128;DHT22;44912;52.754;5.994;2023-05-19T13:27:58;22.70;93.40
59128;DHT22;44912;52.754;5.994;2023-05-19T13:30:26;22.70;92.50
59128;DHT22;44912;52.754;5.994;2023-05-19T13:32:52;22.70;92.00
59128;DHT22;44912;52.754;5.994;2023-05-19T13:35:17;22.70;93.10
59128;DHT22;44912;52.754;5.994;2023-05-19T13:37:43;22.70;92.60
59128;DHT22;44912;52.754;5.994;2023-05-19T13:40:09;22.70;92.80
59128;DHT22;44912;52.754;5.994;2023-05-19T13:42:35;22.80;93.00
59128;DHT22;44912;52.754;5.994;2023-05-19T13:45:01;22.80;92.80
59128;DHT22;44912;52.754;5.994;2023-05-19T13:47:27;22.60;93.50
59128;DHT22;44912;52.754;5.994;2023-05-19T13:49:53;22.40;92.90
59128;DHT22;44912;52.754;5.994;2023-05-19T13:52:22;22.20;93.20
59128;DHT22;44912;52.754;5.994;2023-05-19T13:54:48;22.00;93.50
59128;DHT22;44912;52.754;5.994;2023-05-19T13:57:16;21.90;94.60
59128;DHT22;44912;52.754;5.994;2023-05-19T13:59:42;22.00;94.60
59128;DHT22;44912;52.754;5.994;2023-05-19T14:02:08;22.00;94.20
59128;DHT22;44912;52.754;5.994;2023-05-19T14:04:37;21.80;94.40
59128;DHT22;44912;52.754;5.994;2023-05-19T14:07:07;21.80;95.20
59128;DHT22;44912;52.754;5.994;2023-05-19T14:09:33;21.90;95.10
59128;DHT22;44912;52.754;5.994;2023-05-19T14:11:59;21.90;95.10
59128;DHT22;44912;52.754;5.994;2023-05-19T14:14:25;21.90;95.70
59128;DHT22;44912;52.754;5.994;2023-05-19T14:16:50;22.10;96.00
59128;DHT22;44912;52.754;5.994;2023-05-19T14:19:16;22.10;95.90
59128;DHT22;44912;52.754;5.994;2023-05-19T14:21:42;22.00;95.20
59128;DHT22;44912;52.754;5.994;2023-05-19T14:24:07;21.80;95.10
59128;DHT22;44912;52.754;5.994;2023-05-19T14:26:33;21.70;94.90
59128;DHT22;44912;52.754;5.994;2023-05-19T14:28:58;21.60;94.80
59128;DHT22;44912;52.754;5.994;2023-05-19T14:31:24;21.50;94.90
59128;DHT22;44912;52.754;5.994;2023-05-19T14:33:50;21.50;95.40
59128;DHT22;44912;52.754;5.994;2023-05-19T14:36:16;21.30;95.30
59128;DHT22;44912;52.754;5.994;2023-05-19T14:38:41;21.10;94.60
59128;DHT22;44912;52.754;5.994;2023-05-19T14:41:07;20.80;94.80
59128;DHT22;44912;52.754;5.994;2023-05-19T14:43:32;20.70;94.90
59128;DHT22;44912;52.754;5.994;2023-05-19T14:45:58;20.80;95.90
59128;DHT22;44912;52.754;5.994;2023-05-19T14:48:23;20.80;95.90
59128;DHT22;44912;52.754;5.994;2023-05-19T14:50:49;20.80;95.90
59128;DHT22;44912;52.754;5.994;2023-05-19T14:53:15;20.90;96.30
59128;DHT22;44912;52.754;5.994;2023-05-19T14:55:41;21.10;96.30
59128;DHT22;44912;52.754;5.994;2023-05-19T14:58:07;21.30;95.60
59128;DHT22;44912;52.754;5.994;2023-05-19T15:00:33;21.60;94.90
59128;DHT22;44912;52.754;5.994;2023-05-19T15:02:58;21.90;95.50
59128;DHT22;44912;52.754;5.994;2023-05-19T15:05:24;22.00;95.70
59128;DHT22;44912;52.754;5.994;2023-05-19T15:07:50;22.20;95.40
59128;DHT22;44912;52.754;5.994;2023-05-19T15:10:16;22.30;94.50
59128;DHT22;44912;52.754;5.994;2023-05-19T15:12:44;22.50;93.90
59128;DHT22;44912;52.754;5.994;2023-05-19T15:15:10;22.60;94.40
59128;DHT22;44912;52.754;5.994;2023-05-19T15:17:36;22.70;94.00
59128;DHT22;44912;52.754;5.994;2023-05-19T15:20:02;22.80;94.30
59128;DHT22;44912;52.754;5.994;2023-05-19T15:22:27;22.50;94.00
59128;DHT22;44912;52.754;5.994;2023-05-19T15:24:53;22.20;94.20
59128;DHT22;44912;52.754;5.994;2023-05-19T15:27:18;22.00;95.00
59128;DHT22;44912;52.754;5.994;2023-05-19T15:29:45;22.10;95.20
59128;DHT22;44912;52.754;5.994;2023-05-19T15:32:10;22.40;95.40
59128;DHT22;44912;52.754;5.994;2023-05-19T15:34:36;22.60;95.20
59128;DHT22;44912;52.754;5.994;2023-05-19T15:37:01;22.70;94.20
59128;DHT22;44912;52.754;5.994;2023-05-19T15:39:28;22.40;94.00
59128;DHT22;44912;52.754;5.994;2023-05-19T15:41:54;22.00;94.00
59128;DHT22;44912;52.754;5.994;2023-05-19T15:44:20;21.50;94.60
59128;DHT22;44912;52.754;5.994;2023-05-19T15:46:45;21.00;94.60
59128;DHT22;44912;52.754;5.994;2023-05-19T15:49:11;20.60;95.90
59128;DHT22;44912;52.754;5.994;2023-05-19T15:51:36;20.50;96.90
59128;DHT22;44912;52.754;5.994;2023-05-19T15:54:02;20.80;97.60
59128;DHT22;44912;52.754;5.994;2023-05-19T15:56:28;21.10;96.00
59128;DHT22;44912;52.754;5.994;2023-05-19T15:58:53;21.40;95.20